Station Historical Data
Daily Summary for October 1, 2017 Units:  Metric    English   Both
« Previous Day
Next Day »
Daily Weekly Monthly Yearly Custom
  High: Low: Average:
Temperature: 21.5 °C 14 °C 17.4 °C
Dew Point: 13.7 °C 6.7 °C 8.2 °C
Humidity: 81% 40% 56%
Wind Speed: 24.1km/h 4.8km/h 15.3km/h
Wind Gust: 45.1km/h - -
Wind- - East
Pressure: 1025.3 hPa 1021.9 hPa -
Precipitation: 0 mm    
Historical Graphs
 
 
Tabular Data for October 1, 2017
Time Temperature Dew Point Pressure Wind Wind Speed Wind Gust Humidity Rainfall Rate (Hourly) solar Conditions
00:00 17.2 °C 13.4 °C 1021.9 hPa East 4.8 km/h 4.8 km/h 79% 0 mm WeatherDisplay:10.37 W/m2 FEW
00:05 17.1 °C 13.6 °C 1021.9 hPa East 4.8 km/h 4.8 km/h 80% 0 mm WeatherDisplay:10.37 W/m2 FEW
00:10 17.1 °C 13.4 °C 1021.9 hPa East 4.8 km/h 4.8 km/h 79% 0 mm WeatherDisplay:10.37 W/m2 FEW
00:20 17 °C 13.5 °C 1021.9 hPa East 4.8 km/h 4.8 km/h 80% 0 mm WeatherDisplay:10.37 W/m2 CLR
00:25 16.9 °C 13.5 °C 1021.9 hPa East 4.8 km/h 4.8 km/h 80% 0 mm WeatherDisplay:10.37 W/m2 CLR
00:30 16.9 °C 13.7 °C 1021.9 hPa East 4.8 km/h 4.8 km/h 81% 0 mm WeatherDisplay:10.37 W/m2 CLR
00:35 16.9 °C 13.4 °C 1021.9 hPa East 4.8 km/h 4.8 km/h 80% 0 mm WeatherDisplay:10.37 W/m2 CLR
00:40 16.8 °C 13.2 °C 1021.9 hPa East 4.8 km/h 4.8 km/h 79% 0 mm WeatherDisplay:10.37 W/m2 CLR
00:45 17 °C 13.2 °C 1022.2 hPa East 4.8 km/h 4.8 km/h 78% 0 mm WeatherDisplay:10.37 W/m2 CLR
00:50 17.4 °C 12.8 °C 1022.2 hPa East 4.8 km/h 4.8 km/h 74% 0 mm WeatherDisplay:10.37 W/m2 CLR
00:55 17.7 °C 12.6 °C 1022.2 hPa East 4.8 km/h 4.8 km/h 72% 0 mm WeatherDisplay:10.37 W/m2 CLR
01:00 17.9 °C 12.1 °C 1022.2 hPa East 4.8 km/h 4.8 km/h 69% 0 mm WeatherDisplay:10.37 W/m2 CLR
01:10 18 °C 11.8 °C 1022.2 hPa East 4.8 km/h 4.8 km/h 67% 0 mm WeatherDisplay:10.37 W/m2 CLR
01:15 17.9 °C 11.9 °C 1022.2 hPa ENE 12.9 km/h 12.9 km/h 68% 0 mm WeatherDisplay:10.37 W/m2 CLR
01:20 17.8 °C 11.8 °C 1022.2 hPa ENE 12.9 km/h 12.9 km/h 68% 0 mm WeatherDisplay:10.37 W/m2 CLR
01:25 17.7 °C 11.4 °C 1022.2 hPa ENE 12.9 km/h 12.9 km/h 67% 0 mm WeatherDisplay:10.37 W/m2 CLR
01:30 17.6 °C 11.4 °C 1022.2 hPa ENE 12.9 km/h 12.9 km/h 67% 0 mm WeatherDisplay:10.37 W/m2 CLR
01:35 17.6 °C 11.2 °C 1022.2 hPa ENE 12.9 km/h 12.9 km/h 66% 0 mm WeatherDisplay:10.37 W/m2 CLR
01:40 17.6 °C 10.9 °C 1022.2 hPa ENE 12.9 km/h 12.9 km/h 65% 0 mm WeatherDisplay:10.37 W/m2 CLR
01:45 17.6 °C 10.9 °C 1022.2 hPa ENE 12.9 km/h 12.9 km/h 65% 0 mm WeatherDisplay:10.37 W/m2 CLR
01:50 17.5 °C 10.6 °C 1022.6 hPa ENE 12.9 km/h 12.9 km/h 64% 0 mm WeatherDisplay:10.37 W/m2 CLR
01:55 17.6 °C 10.4 °C 1022.6 hPa ENE 12.9 km/h 12.9 km/h 63% 0 mm WeatherDisplay:10.37 W/m2 CLR
02:00 17.5 °C 10.2 °C 1022.6 hPa ENE 12.9 km/h 12.9 km/h 62% 0 mm WeatherDisplay:10.37 W/m2 CLR
02:05 17.5 °C 10.1 °C 1022.6 hPa ENE 12.9 km/h 12.9 km/h 62% 0 mm WeatherDisplay:10.37 W/m2 CLR
02:10 17.5 °C 9.9 °C 1022.6 hPa ENE 12.9 km/h 12.9 km/h 61% 0 mm WeatherDisplay:10.37 W/m2 CLR
02:15 17.4 °C 9.6 °C 1022.6 hPa ENE 11.3 km/h 12.9 km/h 60% 0 mm WeatherDisplay:10.37 W/m2 CLR
02:20 17.4 °C 9.6 °C 1022.6 hPa East 11.3 km/h 11.3 km/h 60% 0 mm WeatherDisplay:10.37 W/m2 CLR
02:25 17.3 °C 9.7 °C 1022.6 hPa East 11.3 km/h 11.3 km/h 61% 0 mm WeatherDisplay:10.37 W/m2 CLR
02:30 17.3 °C 9.2 °C 1022.6 hPa East 11.3 km/h 11.3 km/h 59% 0 mm WeatherDisplay:10.37 W/m2 CLR
02:35 17.2 °C 9.1 °C 1022.6 hPa East 11.3 km/h 11.3 km/h 59% 0 mm WeatherDisplay:10.37 W/m2 CLR
02:40 17.2 °C 8.8 °C 1022.6 hPa East 11.3 km/h 11.3 km/h 58% 0 mm WeatherDisplay:10.37 W/m2 CLR
02:45 17.2 °C 8.9 °C 1022.9 hPa East 11.3 km/h 11.3 km/h 58% 0 mm WeatherDisplay:10.37 W/m2 CLR
02:50 17.2 °C 8.8 °C 1022.6 hPa East 11.3 km/h 11.3 km/h 58% 0 mm WeatherDisplay:10.37 W/m2 CLR
02:55 17.1 °C 8.8 °C 1022.6 hPa East 11.3 km/h 11.3 km/h 58% 0 mm WeatherDisplay:10.37 W/m2 CLR
03:00 17.1 °C 8.5 °C 1022.6 hPa East 11.3 km/h 11.3 km/h 57% 0 mm WeatherDisplay:10.37 W/m2 CLR
03:05 17.1 °C 8.4 °C 1022.6 hPa East 11.3 km/h 11.3 km/h 57% 0 mm WeatherDisplay:10.37 W/m2 CLR
03:10 17 °C 8.2 °C 1022.6 hPa East 11.3 km/h 11.3 km/h 56% 0 mm WeatherDisplay:10.37 W/m2 CLR
03:15 16.9 °C 8.1 °C 1022.6 hPa East 16.1 km/h 37 km/h 56% 0 mm WeatherDisplay:10.37 W/m2 CLR
03:20 16.9 °C 8.1 °C 1022.6 hPa East 16.1 km/h 37 km/h 56% 0 mm WeatherDisplay:10.37 W/m2 CLR
03:25 16.9 °C 7.8 °C 1022.6 hPa East 16.1 km/h 37 km/h 55% 0 mm WeatherDisplay:10.37 W/m2 CLR
03:30 16.8 °C 7.7 °C 1022.6 hPa East 16.1 km/h 37 km/h 55% 0 mm WeatherDisplay:10.37 W/m2 CLR
03:40 16.6 °C 7.5 °C 1022.6 hPa East 16.1 km/h 37 km/h 55% 0 mm WeatherDisplay:10.37 W/m2 CLR
03:45 16.5 °C 7.4 °C 1022.6 hPa East 16.1 km/h 37 km/h 55% 0 mm WeatherDisplay:10.37 W/m2 CLR
03:50 16.5 °C 7.4 °C 1022.6 hPa East 16.1 km/h 37 km/h 55% 0 mm WeatherDisplay:10.37 W/m2 CLR
03:55 16.4 °C 7.4 °C 1022.6 hPa East 16.1 km/h 37 km/h 55% 0 mm WeatherDisplay:10.37 W/m2 CLR
04:00 16.4 °C 7.6 °C 1022.6 hPa East 16.1 km/h 37 km/h 56% 0 mm WeatherDisplay:10.37 W/m2 CLR
04:05 16.3 °C 7.3 °C 1022.6 hPa East 16.1 km/h 37 km/h 55% 0 mm WeatherDisplay:10.37 W/m2 CLR
04:10 16.3 °C 7.2 °C 1022.6 hPa East 16.1 km/h 37 km/h 55% 0 mm WeatherDisplay:10.37 W/m2 CLR
04:15 16.2 °C 7.2 °C 1022.9 hPa East 20.9 km/h 37 km/h 55% 0 mm WeatherDisplay:10.37 W/m2 CLR
04:20 16.2 °C 7.2 °C 1022.9 hPa East 20.9 km/h 37 km/h 55% 0 mm WeatherDisplay:10.37 W/m2 CLR
04:25 16.2 °C 7.1 °C 1022.9 hPa East 20.9 km/h 37 km/h 55% 0 mm WeatherDisplay:10.37 W/m2 CLR
04:30 16.1 °C 7.1 °C 1022.9 hPa East 20.9 km/h 37 km/h 55% 0 mm WeatherDisplay:10.37 W/m2 CLR
04:35 16.1 °C 7 °C 1022.9 hPa East 20.9 km/h 37 km/h 55% 0 mm WeatherDisplay:10.37 W/m2 CLR
04:40 16.1 °C 7.3 °C 1022.9 hPa East 20.9 km/h 37 km/h 56% 0 mm WeatherDisplay:10.37 W/m2 CLR
04:45 16.1 °C 7.3 °C 1022.9 hPa East 20.9 km/h 37 km/h 56% 0 mm WeatherDisplay:10.37 W/m2 CLR
04:50 15.9 °C 7.2 °C 1022.9 hPa East 20.9 km/h 37 km/h 56% 0 mm WeatherDisplay:10.37 W/m2 CLR
04:55 15.8 °C 7.1 °C 1022.9 hPa East 20.9 km/h 37 km/h 56% 0 mm WeatherDisplay:10.37 W/m2 CLR
05:00 15.8 °C 7.1 °C 1022.9 hPa East 20.9 km/h 37 km/h 56% 0 mm WeatherDisplay:10.37 W/m2 CLR
05:05 15.8 °C 7 °C 1022.9 hPa East 20.9 km/h 37 km/h 56% 0 mm WeatherDisplay:10.37 W/m2 CLR
05:15 15.6 °C 7.1 °C 1022.9 hPa East 19.3 km/h 37 km/h 57% 0 mm WeatherDisplay:10.37 W/m2 CLR
05:20 15.5 °C 7 °C 1022.6 hPa East 19.3 km/h 19.3 km/h 57% 0 mm WeatherDisplay:10.37 W/m2 CLR
05:30 15.4 °C 7.2 °C 1022.6 hPa East 19.3 km/h 19.3 km/h 58% 0 mm WeatherDisplay:10.37 W/m2 CLR
05:35 15.3 °C 7.1 °C 1022.9 hPa East 19.3 km/h 19.3 km/h 58% 0 mm WeatherDisplay:10.37 W/m2 CLR
05:40 15.3 °C 7.1 °C 1022.9 hPa East 19.3 km/h 19.3 km/h 58% 0 mm WeatherDisplay:10.37 W/m2 CLR
05:45 15.2 °C 7 °C 1022.9 hPa East 19.3 km/h 19.3 km/h 58% 0 mm WeatherDisplay:10.37 W/m2 CLR
05:50 15.2 °C 6.9 °C 1022.9 hPa East 19.3 km/h 19.3 km/h 58% 0 mm WeatherDisplay:10.37 W/m2 CLR
05:55 15.1 °C 7.2 °C 1022.9 hPa East 19.3 km/h 19.3 km/h 59% 0 mm WeatherDisplay:10.37 W/m2 CLR
06:00 15 °C 7.1 °C 1023.2 hPa East 19.3 km/h 19.3 km/h 59% 0 mm WeatherDisplay:10.37 W/m2 CLR
06:05 15 °C 7.1 °C 1023.2 hPa East 19.3 km/h 19.3 km/h 59% 0 mm WeatherDisplay:10.37 W/m2 CLR
06:10 14.9 °C 7 °C 1023.2 hPa East 19.3 km/h 19.3 km/h 59% 0 mm WeatherDisplay:10.37 W/m2 CLR
06:15 14.9 °C 6.9 °C 1023.2 hPa ENE 11.3 km/h 19.3 km/h 59% 0 mm WeatherDisplay:10.37 W/m2 FEW
06:20 14.8 °C 7.1 °C 1023.2 hPa ENE 11.3 km/h 11.3 km/h 60% 0 mm WeatherDisplay:10.37 W/m2 FEW
06:25 14.7 °C 7 °C 1023.2 hPa ENE 11.3 km/h 11.3 km/h 60% 0 mm WeatherDisplay:10.37 W/m2 FEW
06:30 14.6 °C 7.2 °C 1023.2 hPa ENE 11.3 km/h 11.3 km/h 61% 0 mm WeatherDisplay:10.37 W/m2 FEW
06:35 14.6 °C 6.9 °C 1023.2 hPa ENE 11.3 km/h 11.3 km/h 60% 0 mm WeatherDisplay:10.37 W/m2 FEW
06:40 14.6 °C 7.2 °C 1023.6 hPa ENE 11.3 km/h 11.3 km/h 61% 0 mm WeatherDisplay:10.37 W/m2 FEW
06:45 14.5 °C 7.1 °C 1023.6 hPa ENE 11.3 km/h 11.3 km/h 61% 0 mm WeatherDisplay:10.37 W/m2 FEW
06:50 14.4 °C 7.2 °C 1023.6 hPa ENE 11.3 km/h 11.3 km/h 62% 0 mm WeatherDisplay:10.37 W/m2 FEW
06:55 14.4 °C 7.2 °C 1023.6 hPa ENE 11.3 km/h 11.3 km/h 62% 0 mm WeatherDisplay:10.37 W/m2 FEW
07:00 14.4 °C 7.3 °C 1023.6 hPa ENE 11.3 km/h 11.3 km/h 62% 0 mm WeatherDisplay:10.37 W/m2 FEW
07:05 14.4 °C 7.2 °C 1023.6 hPa ENE 11.3 km/h 11.3 km/h 62% 0 mm WeatherDisplay:10.37 W/m2 FEW
07:10 14.4 °C 7.2 °C 1023.6 hPa ENE 11.3 km/h 11.3 km/h 62% 0 mm WeatherDisplay:10.37 W/m2 FEW
07:15 14.3 °C 7.2 °C 1023.6 hPa ENE 14.5 km/h 14.5 km/h 62% 0 mm WeatherDisplay:10.37 W/m2 FEW
07:20 14.3 °C 7.3 °C 1023.9 hPa ENE 14.5 km/h 14.5 km/h 63% 0 mm WeatherDisplay:10.37 W/m2 FEW
07:25 14.2 °C 7.3 °C 1023.9 hPa ENE 14.5 km/h 14.5 km/h 63% 0 mm WeatherDisplay:10.37 W/m2 FEW
07:30 14.2 °C 7.3 °C 1023.9 hPa ENE 14.5 km/h 14.5 km/h 63% 0 mm WeatherDisplay:10.37 W/m2 FEW
07:35 14.1 °C 7.4 °C 1023.9 hPa ENE 14.5 km/h 14.5 km/h 64% 0 mm WeatherDisplay:10.37 W/m2 FEW
07:40 14.1 °C 7.2 °C 1023.9 hPa ENE 14.5 km/h 14.5 km/h 63% 0 mm WeatherDisplay:10.37 W/m2 FEW
07:45 14.1 °C 7.2 °C 1024.3 hPa ENE 14.5 km/h 14.5 km/h 63% 0 mm WeatherDisplay:10.37 W/m2 FEW
07:50 14.1 °C 7.2 °C 1024.3 hPa ENE 14.5 km/h 14.5 km/h 63% 0 mm WeatherDisplay:10.37 W/m2 FEW
07:55 14.1 °C 7.3 °C 1024.3 hPa ENE 14.5 km/h 14.5 km/h 64% 0 mm WeatherDisplay:10.37 W/m2 FEW
08:00 14.1 °C 7.3 °C 1024.3 hPa ENE 14.5 km/h 14.5 km/h 64% 0 mm WeatherDisplay:10.37 W/m2 FEW
08:05 14.1 °C 7.3 °C 1024.3 hPa ENE 14.5 km/h 14.5 km/h 64% 0 mm WeatherDisplay:10.37 W/m2 FEW
08:10 14 °C 7.3 °C 1024.6 hPa ENE 14.5 km/h 14.5 km/h 64% 0 mm WeatherDisplay:10.37 W/m2 FEW
08:15 14.1 °C 7.3 °C 1024.6 hPa ENE 20.9 km/h 20.9 km/h 64% 0 mm WeatherDisplay:10.37 W/m2 FEW
08:20 14.1 °C 7.6 °C 1024.6 hPa East 20.9 km/h 20.9 km/h 65% 0 mm WeatherDisplay:10.37 W/m2 FEW
08:25 14.2 °C 7.7 °C 1024.6 hPa East 20.9 km/h 20.9 km/h 65% 0 mm WeatherDisplay:10.37 W/m2 FEW
08:30 14.2 °C 7.7 °C 1024.6 hPa East 20.9 km/h 20.9 km/h 65% 0 mm WeatherDisplay:10.37 W/m2 FEW
08:35 14.3 °C 7.8 °C 1024.6 hPa East 20.9 km/h 20.9 km/h 65% 0 mm WeatherDisplay:10.37 W/m2 FEW
08:40 14.3 °C 7.6 °C 1024.6 hPa East 20.9 km/h 20.9 km/h 64% 0 mm WeatherDisplay:10.37 W/m2 FEW
08:45 14.4 °C 7.7 °C 1024.6 hPa East 20.9 km/h 20.9 km/h 64% 0 mm WeatherDisplay:10.37 W/m2 FEW
08:50 14.4 °C 7.7 °C 1024.6 hPa East 20.9 km/h 20.9 km/h 64% 0 mm WeatherDisplay:10.37 W/m2 FEW
08:55 14.4 °C 7.9 °C 1024.6 hPa East 20.9 km/h 20.9 km/h 65% 0 mm WeatherDisplay:10.37 W/m2 FEW
09:00 14.5 °C 8 °C 1024.6 hPa East 20.9 km/h 20.9 km/h 65% 0 mm WeatherDisplay:10.37 W/m2 FEW
09:05 14.6 °C 7.8 °C 1024.6 hPa East 20.9 km/h 20.9 km/h 64% 0 mm WeatherDisplay:10.37 W/m2 FEW
09:10 14.6 °C 8.1 °C 1024.6 hPa East 20.9 km/h 20.9 km/h 65% 0 mm WeatherDisplay:10.37 W/m2 FEW
09:15 14.7 °C 7.9 °C 1024.9 hPa East 12.9 km/h 37 km/h 64% 0 mm WeatherDisplay:10.37 W/m2 FEW
09:20 14.8 °C 8.1 °C 1024.9 hPa East 12.9 km/h 37 km/h 64% 0 mm WeatherDisplay:10.37 W/m2 FEW
09:30 14.9 °C 7.7 °C 1024.9 hPa East 12.9 km/h 37 km/h 62% 0 mm WeatherDisplay:10.37 W/m2 FEW
09:35 14.9 °C 7.5 °C 1024.9 hPa East 12.9 km/h 37 km/h 61% 0 mm WeatherDisplay:10.37 W/m2 FEW
09:40 14.9 °C 7.4 °C 1025.3 hPa East 12.9 km/h 37 km/h 61% 0 mm WeatherDisplay:10.37 W/m2 FEW
09:45 14.9 °C 7.5 °C 1025.3 hPa East 12.9 km/h 37 km/h 61% 0 mm WeatherDisplay:10.37 W/m2 FEW
09:50 15.1 °C 7.3 °C 1025.3 hPa East 12.9 km/h 37 km/h 60% 0 mm WeatherDisplay:10.37 W/m2 FEW
09:55 15.1 °C 7.3 °C 1025.3 hPa East 12.9 km/h 37 km/h 60% 0 mm WeatherDisplay:10.37 W/m2 FEW
10:00 15.2 °C 7.9 °C 1025.3 hPa East 12.9 km/h 37 km/h 62% 0 mm WeatherDisplay:10.37 W/m2 FEW
10:05 15.4 °C 7.9 °C 1025.3 hPa East 12.9 km/h 37 km/h 61% 0 mm WeatherDisplay:10.37 W/m2 FEW
10:10 15.5 °C 7.8 °C 1025.3 hPa East 12.9 km/h 37 km/h 60% 0 mm WeatherDisplay:10.37 W/m2 FEW
10:15 15.6 °C 7.6 °C 1025.3 hPa East 24.1 km/h 40.2 km/h 59% 0 mm WeatherDisplay:10.37 W/m2 FEW
10:20 15.6 °C 7.4 °C 1025.3 hPa East 24.1 km/h 40.2 km/h 58% 0 mm WeatherDisplay:10.37 W/m2 FEW
10:25 15.7 °C 7.7 °C 1025.3 hPa East 24.1 km/h 40.2 km/h 59% 0 mm WeatherDisplay:10.37 W/m2 FEW
10:30 15.8 °C 8.1 °C 1025.3 hPa East 24.1 km/h 40.2 km/h 60% 0 mm WeatherDisplay:10.37 W/m2 FEW
10:35 16.1 °C 8.1 °C 1025.3 hPa East 24.1 km/h 40.2 km/h 59% 0 mm WeatherDisplay:10.37 W/m2 FEW
10:40 16.3 °C 8.3 °C 1025.3 hPa East 24.1 km/h 40.2 km/h 59% 0 mm WeatherDisplay:10.37 W/m2 FEW
10:45 16.4 °C 8.2 °C 1025.3 hPa East 24.1 km/h 40.2 km/h 58% 0 mm WeatherDisplay:10.37 W/m2 FEW
10:50 16.6 °C 7.8 °C 1025.3 hPa East 24.1 km/h 40.2 km/h 56% 0 mm WeatherDisplay:10.37 W/m2 FEW
10:55 16.8 °C 7.9 °C 1025.3 hPa East 24.1 km/h 40.2 km/h 56% 0 mm WeatherDisplay:10.37 W/m2 FEW
11:00 16.9 °C 7.6 °C 1025.3 hPa East 24.1 km/h 40.2 km/h 54% 0 mm WeatherDisplay:10.37 W/m2 FEW
11:05 17.2 °C 7.8 °C 1025.3 hPa East 24.1 km/h 40.2 km/h 54% 0 mm WeatherDisplay:10.37 W/m2 FEW
11:10 17.4 °C 7.7 °C 1025.3 hPa East 24.1 km/h 40.2 km/h 53% 0 mm WeatherDisplay:10.37 W/m2 FEW
11:15 17.4 °C 7.4 °C 1025.3 hPa East 20.9 km/h 40.2 km/h 52% 0 mm WeatherDisplay:10.37 W/m2 FEW
11:20 17.6 °C 7.9 °C 1025.3 hPa ENE 20.9 km/h 38.6 km/h 53% 0 mm WeatherDisplay:10.37 W/m2 FEW
11:25 17.9 °C 8.2 °C 1025.3 hPa ENE 20.9 km/h 38.6 km/h 53% 0 mm WeatherDisplay:10.37 W/m2 FEW
11:30 17.9 °C 8.2 °C 1025.3 hPa ENE 20.9 km/h 38.6 km/h 53% 0 mm WeatherDisplay:10.37 W/m2 FEW
11:35 18.5 °C 8.7 °C 1025.3 hPa ENE 20.9 km/h 38.6 km/h 53% 0 mm WeatherDisplay:10.37 W/m2 FEW
11:40 18.9 °C 8.6 °C 1025.3 hPa ENE 20.9 km/h 38.6 km/h 51% 0 mm WeatherDisplay:10.37 W/m2 FEW
11:45 19.3 °C 8.6 °C 1025.3 hPa ENE 20.9 km/h 38.6 km/h 50% 0 mm WeatherDisplay:10.37 W/m2 FEW
11:50 19.2 °C 8.6 °C 1025.3 hPa ENE 20.9 km/h 38.6 km/h 50% 0 mm WeatherDisplay:10.37 W/m2 FEW
11:55 19.4 °C 8.7 °C 1025.3 hPa ENE 20.9 km/h 38.6 km/h 50% 0 mm WeatherDisplay:10.37 W/m2 FEW
12:00 19.5 °C 8.5 °C 1025.3 hPa ENE 20.9 km/h 38.6 km/h 49% 0 mm WeatherDisplay:10.37 W/m2 FEW
12:05 19.4 °C 8.1 °C 1025.3 hPa ENE 20.9 km/h 38.6 km/h 48% 0 mm WeatherDisplay:10.37 W/m2 FEW
12:10 19.6 °C 8.3 °C 1025.3 hPa ENE 20.9 km/h 38.6 km/h 48% 0 mm WeatherDisplay:10.37 W/m2 FEW
12:15 19.4 °C 8.4 °C 1025.3 hPa ENE 20.9 km/h 45.1 km/h 49% 0 mm WeatherDisplay:10.37 W/m2 FEW
12:25 19.6 °C 9.2 °C 1024.9 hPa East 20.9 km/h 45.1 km/h 51% 0 mm WeatherDisplay:10.37 W/m2 FEW
12:30 19.5 °C 8.5 °C 1024.9 hPa East 20.9 km/h 45.1 km/h 49% 0 mm WeatherDisplay:10.37 W/m2 FEW
12:35 19.9 °C 8.8 °C 1024.9 hPa East 20.9 km/h 45.1 km/h 49% 0 mm WeatherDisplay:10.37 W/m2 FEW
12:40 20.1 °C 8.4 °C 1024.9 hPa East 20.9 km/h 45.1 km/h 47% 0 mm WeatherDisplay:10.37 W/m2 FEW
12:45 20.3 °C 8.9 °C 1024.9 hPa East 20.9 km/h 45.1 km/h 48% 0 mm WeatherDisplay:10.37 W/m2 FEW
12:50 20.5 °C 8.5 °C 1024.6 hPa East 20.9 km/h 45.1 km/h 46% 0 mm WeatherDisplay:10.37 W/m2 FEW
12:55 20.5 °C 8.4 °C 1024.6 hPa East 20.9 km/h 45.1 km/h 46% 0 mm WeatherDisplay:10.37 W/m2 FEW
13:00 20.3 °C 8 °C 1024.6 hPa East 20.9 km/h 45.1 km/h 45% 0 mm WeatherDisplay:10.37 W/m2 FEW
13:05 20.3 °C 8 °C 1024.6 hPa East 20.9 km/h 45.1 km/h 45% 0 mm WeatherDisplay:10.37 W/m2 FEW
13:10 20.1 °C 7.5 °C 1024.6 hPa East 20.9 km/h 45.1 km/h 44% 0 mm WeatherDisplay:10.37 W/m2 FEW
13:15 19.9 °C 7.6 °C 1024.6 hPa East 20.9 km/h 45.1 km/h 45% 0 mm WeatherDisplay:10.37 W/m2 SCT
13:20 19.5 °C 7.2 °C 1024.6 hPa East 20.9 km/h 40.2 km/h 45% 0 mm WeatherDisplay:10.37 W/m2 SCT
13:25 19.7 °C 8.1 °C 1024.3 hPa East 20.9 km/h 40.2 km/h 47% 0 mm WeatherDisplay:10.37 W/m2 SCT
13:30 19.9 °C 7.3 °C 1024.3 hPa East 20.9 km/h 40.2 km/h 44% 0 mm WeatherDisplay:10.37 W/m2 SCT
13:40 19.4 °C 7.8 °C 1024.3 hPa East 20.9 km/h 40.2 km/h 47% 0 mm WeatherDisplay:10.37 W/m2 SCT
13:45 19.5 °C 7.6 °C 1023.9 hPa East 20.9 km/h 40.2 km/h 46% 0 mm WeatherDisplay:10.37 W/m2 SCT
13:50 19.8 °C 8.5 °C 1023.9 hPa East 20.9 km/h 40.2 km/h 48% 0 mm WeatherDisplay:10.37 W/m2 SCT
13:55 20.4 °C 8.7 °C 1023.9 hPa East 20.9 km/h 40.2 km/h 47% 0 mm WeatherDisplay:10.37 W/m2 SCT
14:00 20.9 °C 7.5 °C 1023.9 hPa East 20.9 km/h 40.2 km/h 42% 0 mm WeatherDisplay:10.37 W/m2 SCT
14:05 20.9 °C 7.2 °C 1023.6 hPa East 20.9 km/h 40.2 km/h 41% 0 mm WeatherDisplay:10.37 W/m2 SCT
14:10 20.9 °C 7.6 °C 1023.6 hPa East 20.9 km/h 40.2 km/h 42% 0 mm WeatherDisplay:10.37 W/m2 SCT
14:15 21.3 °C 7.8 °C 1023.6 hPa East 19.3 km/h 40.2 km/h 42% 0 mm WeatherDisplay:10.37 W/m2 BKN
14:20 21.4 °C 8.3 °C 1023.2 hPa East 19.3 km/h 19.3 km/h 43% 0 mm WeatherDisplay:10.37 W/m2 BKN
14:25 21.4 °C 7.2 °C 1023.6 hPa East 19.3 km/h 19.3 km/h 40% 0 mm WeatherDisplay:10.37 W/m2 BKN
14:30 21.1 °C 6.9 °C 1023.2 hPa East 19.3 km/h 19.3 km/h 40% 0 mm WeatherDisplay:10.37 W/m2 BKN
14:35 21.1 °C 8 °C 1022.9 hPa East 19.3 km/h 19.3 km/h 43% 0 mm WeatherDisplay:10.37 W/m2 BKN
14:40 21.3 °C 7.8 °C 1022.9 hPa East 19.3 km/h 19.3 km/h 42% 0 mm WeatherDisplay:10.37 W/m2 BKN
14:45 21.3 °C 7.2 °C 1022.9 hPa East 19.3 km/h 19.3 km/h 40% 0 mm WeatherDisplay:10.37 W/m2 BKN
14:50 21.3 °C 7.4 °C 1022.9 hPa East 19.3 km/h 19.3 km/h 41% 0 mm WeatherDisplay:10.37 W/m2 BKN
14:55 21.1 °C 7.3 °C 1022.9 hPa East 19.3 km/h 19.3 km/h 41% 0 mm WeatherDisplay:10.37 W/m2 BKN
15:00 21.2 °C 7.4 °C 1022.9 hPa East 19.3 km/h 19.3 km/h 41% 0 mm WeatherDisplay:10.37 W/m2 BKN
15:05 21.3 °C 7.6 °C 1022.6 hPa East 19.3 km/h 19.3 km/h 41% 0 mm WeatherDisplay:10.37 W/m2 BKN
15:10 21.3 °C 7.9 °C 1022.6 hPa East 19.3 km/h 19.3 km/h 42% 0 mm WeatherDisplay:10.37 W/m2 BKN
15:15 21.4 °C 7.6 °C 1022.6 hPa East 11.3 km/h 19.3 km/h 41% 0 mm WeatherDisplay:10.37 W/m2 BKN
15:20 21.2 °C 7 °C 1022.6 hPa East 11.3 km/h 11.3 km/h 40% 0 mm WeatherDisplay:10.37 W/m2 BKN
15:25 20.9 °C 6.8 °C 1022.6 hPa East 11.3 km/h 11.3 km/h 40% 0 mm WeatherDisplay:10.37 W/m2 BKN
15:30 20.9 °C 6.8 °C 1022.6 hPa East 11.3 km/h 11.3 km/h 40% 0 mm WeatherDisplay:10.37 W/m2 BKN
15:35 20.9 °C 6.8 °C 1022.6 hPa East 11.3 km/h 11.3 km/h 40% 0 mm WeatherDisplay:10.37 W/m2 BKN
15:40 20.9 °C 7.5 °C 1022.6 hPa East 11.3 km/h 11.3 km/h 42% 0 mm WeatherDisplay:10.37 W/m2 BKN
15:45 20.8 °C 6.7 °C 1022.6 hPa East 11.3 km/h 11.3 km/h 40% 0 mm WeatherDisplay:10.37 W/m2 BKN
15:50 20.8 °C 7.4 °C 1022.6 hPa East 11.3 km/h 11.3 km/h 42% 0 mm WeatherDisplay:10.37 W/m2 BKN
16:00 20.9 °C 7.5 °C 1022.2 hPa East 11.3 km/h 11.3 km/h 42% 0 mm WeatherDisplay:10.37 W/m2 BKN
16:05 21 °C 7.6 °C 1022.2 hPa East 11.3 km/h 11.3 km/h 42% 0 mm WeatherDisplay:10.37 W/m2 BKN
16:10 21.2 °C 7.4 °C 1022.2 hPa East 11.3 km/h 11.3 km/h 41% 0 mm WeatherDisplay:10.37 W/m2 BKN
16:15 21.4 °C 8 °C 1022.2 hPa East 19.3 km/h 33.8 km/h 42% 0 mm WeatherDisplay:10.37 W/m2 BKN
16:20 21.5 °C 7.3 °C 1022.2 hPa East 19.3 km/h 33.8 km/h 40% 0 mm WeatherDisplay:10.37 W/m2 BKN
16:25 21.3 °C 7.5 °C 1022.2 hPa East 19.3 km/h 33.8 km/h 41% 0 mm WeatherDisplay:10.37 W/m2 BKN
16:30 21.3 °C 7.9 °C 1021.9 hPa East 19.3 km/h 33.8 km/h 42% 0 mm WeatherDisplay:10.37 W/m2 BKN
16:35 21.4 °C 7.6 °C 1021.9 hPa East 19.3 km/h 33.8 km/h 41% 0 mm WeatherDisplay:10.37 W/m2 BKN
16:40 21.5 °C 7.7 °C 1022.2 hPa East 19.3 km/h 33.8 km/h 41% 0 mm WeatherDisplay:10.37 W/m2 BKN
16:45 21.4 °C 7.6 °C 1021.9 hPa East 19.3 km/h 33.8 km/h 41% 0 mm WeatherDisplay:10.37 W/m2 BKN
16:50 21.3 °C 7.4 °C 1021.9 hPa East 19.3 km/h 33.8 km/h 41% 0 mm WeatherDisplay:10.37 W/m2 BKN
16:55 21.2 °C 7.7 °C 1021.9 hPa East 19.3 km/h 33.8 km/h 42% 0 mm WeatherDisplay:10.37 W/m2 BKN
17:00 21.1 °C 8.1 °C 1021.9 hPa East 19.3 km/h 33.8 km/h 43% 0 mm WeatherDisplay:10.37 W/m2 BKN
17:05 21.1 °C 6.9 °C 1022.2 hPa East 19.3 km/h 33.8 km/h 40% 0 mm WeatherDisplay:10.37 W/m2 BKN
17:10 20.9 °C 7.2 °C 1021.9 hPa East 19.3 km/h 33.8 km/h 41% 0 mm WeatherDisplay:10.37 W/m2 BKN
17:15 20.8 °C 7.1 °C 1022.2 hPa East 22.5 km/h 33.8 km/h 41% 0 mm WeatherDisplay:10.37 W/m2 BKN
17:20 20.6 °C 7.6 °C 1022.2 hPa East 22.5 km/h 22.5 km/h 43% 0 mm WeatherDisplay:10.37 W/m2 BKN
17:25 20.6 °C 7.6 °C 1021.9 hPa East 22.5 km/h 22.5 km/h 43% 0 mm WeatherDisplay:10.37 W/m2 BKN
17:30 20.6 °C 7.6 °C 1021.9 hPa East 22.5 km/h 22.5 km/h 43% 0 mm WeatherDisplay:10.37 W/m2 BKN
17:35 20.6 °C 7.2 °C 1021.9 hPa East 22.5 km/h 22.5 km/h 42% 0 mm WeatherDisplay:10.37 W/m2 BKN
17:40 20.4 °C 7.4 °C 1021.9 hPa East 22.5 km/h 22.5 km/h 43% 0 mm WeatherDisplay:10.37 W/m2 BKN
17:45 20.3 °C 7.7 °C 1021.9 hPa East 22.5 km/h 22.5 km/h 44% 0 mm WeatherDisplay:10.37 W/m2 BKN
17:50 20.3 °C 8.3 °C 1021.9 hPa East 22.5 km/h 22.5 km/h 46% 0 mm WeatherDisplay:10.37 W/m2 BKN
17:55 20.3 °C 7.3 °C 1021.9 hPa East 22.5 km/h 22.5 km/h 43% 0 mm WeatherDisplay:10.37 W/m2 BKN
18:00 20.2 °C 7.2 °C 1021.9 hPa East 22.5 km/h 22.5 km/h 43% 0 mm WeatherDisplay:10.37 W/m2 BKN
18:05 20.1 °C 7.1 °C 1021.9 hPa East 22.5 km/h 22.5 km/h 43% 0 mm WeatherDisplay:10.37 W/m2 BKN
18:10 19.9 °C 7.3 °C 1021.9 hPa East 22.5 km/h 22.5 km/h 44% 0 mm WeatherDisplay:10.37 W/m2 BKN
18:15 19.8 °C 7.6 °C 1021.9 hPa East 19.3 km/h 22.5 km/h 45% 0 mm WeatherDisplay:10.37 W/m2 BKN
18:20 19.7 °C 7.4 °C 1021.9 hPa East 19.3 km/h 19.3 km/h 45% 0 mm WeatherDisplay:10.37 W/m2 BKN
18:25 19.6 °C 7.3 °C 1021.9 hPa East 19.3 km/h 19.3 km/h 45% 0 mm WeatherDisplay:10.37 W/m2 BKN
18:30 19.5 °C 7.2 °C 1022.2 hPa East 19.3 km/h 19.3 km/h 45% 0 mm WeatherDisplay:10.37 W/m2 BKN
18:40 19.2 °C 7.6 °C 1022.2 hPa East 19.3 km/h 19.3 km/h 47% 0 mm WeatherDisplay:10.37 W/m2 BKN
18:45 19.1 °C 7.8 °C 1022.2 hPa East 19.3 km/h 19.3 km/h 48% 0 mm WeatherDisplay:10.37 W/m2 BKN
18:50 18.9 °C 7.9 °C 1022.2 hPa East 19.3 km/h 19.3 km/h 49% 0 mm WeatherDisplay:10.37 W/m2 BKN
18:55 18.8 °C 7.8 °C 1022.2 hPa East 19.3 km/h 19.3 km/h 49% 0 mm WeatherDisplay:10.37 W/m2 BKN
19:00 18.7 °C 7.8 °C 1022.2 hPa East 19.3 km/h 19.3 km/h 49% 0 mm WeatherDisplay:10.37 W/m2 BKN
19:05 18.6 °C 8 °C 1022.2 hPa East 19.3 km/h 19.3 km/h 50% 0 mm WeatherDisplay:10.37 W/m2 BKN
19:10 18.6 °C 7.6 °C 1022.6 hPa East 19.3 km/h 19.3 km/h 49% 0 mm WeatherDisplay:10.37 W/m2 BKN
19:15 18.5 °C 8.2 °C 1022.6 hPa East 9.7 km/h 19.3 km/h 51% 0 mm WeatherDisplay:10.37 W/m2 BKN
19:20 18.4 °C 8.3 °C 1022.6 hPa East 9.7 km/h 9.7 km/h 52% 0 mm WeatherDisplay:10.37 W/m2 BKN
19:25 18.2 °C 8.4 °C 1022.6 hPa East 9.7 km/h 9.7 km/h 53% 0 mm WeatherDisplay:10.37 W/m2 BKN
19:30 18 °C 8 °C 1022.6 hPa East 9.7 km/h 9.7 km/h 52% 0 mm WeatherDisplay:10.37 W/m2 BKN
19:40 17.7 °C 8.6 °C 1022.6 hPa East 9.7 km/h 9.7 km/h 55% 0 mm WeatherDisplay:10.37 W/m2 BKN
19:45 17.6 °C 8.7 °C 1022.6 hPa East 9.7 km/h 9.7 km/h 56% 0 mm WeatherDisplay:10.37 W/m2 BKN
19:50 17.4 °C 8.5 °C 1022.9 hPa East 9.7 km/h 9.7 km/h 56% 0 mm WeatherDisplay:10.37 W/m2 BKN
19:55 17.3 °C 8.7 °C 1022.9 hPa East 9.7 km/h 9.7 km/h 57% 0 mm WeatherDisplay:10.37 W/m2 BKN
20:00 17.2 °C 8.3 °C 1022.9 hPa East 9.7 km/h 9.7 km/h 56% 0 mm WeatherDisplay:10.37 W/m2 BKN
20:05 17.1 °C 8.5 °C 1022.9 hPa East 9.7 km/h 9.7 km/h 57% 0 mm WeatherDisplay:10.37 W/m2 BKN
20:10 17 °C 8.7 °C 1022.9 hPa East 9.7 km/h 9.7 km/h 58% 0 mm WeatherDisplay:10.37 W/m2 BKN
20:15 16.9 °C 8.6 °C 1022.9 hPa East 11.3 km/h 11.3 km/h 58% 0 mm WeatherDisplay:10.37 W/m2 BKN
20:20 16.8 °C 8.5 °C 1022.9 hPa East 11.3 km/h 11.3 km/h 58% 0 mm WeatherDisplay:10.37 W/m2 BKN
20:25 16.8 °C 8.4 °C 1023.2 hPa East 11.3 km/h 11.3 km/h 58% 0 mm WeatherDisplay:10.37 W/m2 BKN
20:30 16.7 °C 8.9 °C 1023.2 hPa East 11.3 km/h 11.3 km/h 60% 0 mm WeatherDisplay:10.37 W/m2 BKN
20:35 16.6 °C 8.5 °C 1023.2 hPa East 11.3 km/h 11.3 km/h 59% 0 mm WeatherDisplay:10.37 W/m2 BKN
20:40 16.4 °C 8.7 °C 1023.2 hPa East 11.3 km/h 11.3 km/h 60% 0 mm WeatherDisplay:10.37 W/m2 BKN
20:45 16.3 °C 8.8 °C 1023.2 hPa East 11.3 km/h 11.3 km/h 61% 0 mm WeatherDisplay:10.37 W/m2 BKN
20:50 16.3 °C 8.7 °C 1023.2 hPa East 11.3 km/h 11.3 km/h 61% 0 mm WeatherDisplay:10.37 W/m2 BKN
20:55 16.2 °C 8.6 °C 1023.2 hPa East 11.3 km/h 11.3 km/h 61% 0 mm WeatherDisplay:10.37 W/m2 BKN
21:00 16.1 °C 8.8 °C 1023.6 hPa East 11.3 km/h 11.3 km/h 62% 0 mm WeatherDisplay:10.37 W/m2 BKN
21:05 16.1 °C 8.8 °C 1023.6 hPa East 11.3 km/h 11.3 km/h 62% 0 mm WeatherDisplay:10.37 W/m2 BKN
21:10 16 °C 8.9 °C 1023.6 hPa East 11.3 km/h 11.3 km/h 63% 0 mm WeatherDisplay:10.37 W/m2 BKN
21:15 15.9 °C 8.8 °C 1023.6 hPa ENE 4.8 km/h 11.3 km/h 63% 0 mm WeatherDisplay:10.37 W/m2 SCT
21:20 15.8 °C 8.8 °C 1023.9 hPa ENE 4.8 km/h 4.8 km/h 63% 0 mm WeatherDisplay:10.37 W/m2 SCT
21:25 15.8 °C 8.7 °C 1023.9 hPa ENE 4.8 km/h 4.8 km/h 63% 0 mm WeatherDisplay:10.37 W/m2 SCT
21:30 15.8 °C 8.5 °C 1023.9 hPa ENE 4.8 km/h 4.8 km/h 62% 0 mm WeatherDisplay:10.37 W/m2 SCT
21:35 15.7 °C 8.7 °C 1023.9 hPa ENE 4.8 km/h 4.8 km/h 63% 0 mm WeatherDisplay:10.37 W/m2 SCT
21:40 15.7 °C 8.7 °C 1023.9 hPa ENE 4.8 km/h 4.8 km/h 63% 0 mm WeatherDisplay:10.37 W/m2 SCT
21:45 15.7 °C 8.7 °C 1023.9 hPa ENE 4.8 km/h 4.8 km/h 63% 0 mm WeatherDisplay:10.37 W/m2 SCT
21:50 15.7 °C 8.7 °C 1023.9 hPa ENE 4.8 km/h 4.8 km/h 63% 0 mm WeatherDisplay:10.37 W/m2 SCT
21:55 15.6 °C 8.6 °C 1024.3 hPa ENE 4.8 km/h 4.8 km/h 63% 0 mm WeatherDisplay:10.37 W/m2 SCT
22:00 15.6 °C 8.6 °C 1024.3 hPa ENE 4.8 km/h 4.8 km/h 63% 0 mm WeatherDisplay:10.37 W/m2 SCT
22:05 15.6 °C 8.6 °C 1024.3 hPa ENE 4.8 km/h 4.8 km/h 63% 0 mm WeatherDisplay:10.37 W/m2 SCT
22:10 15.6 °C 8.6 °C 1024.3 hPa ENE 4.8 km/h 4.8 km/h 63% 0 mm WeatherDisplay:10.37 W/m2 SCT
22:15 15.6 °C 8.5 °C 1024.3 hPa East 8 km/h 8 km/h 63% 0 mm WeatherDisplay:10.37 W/m2 BKN
22:20 15.5 °C 8.5 °C 1024.3 hPa East 8 km/h 8 km/h 63% 0 mm WeatherDisplay:10.37 W/m2 BKN
22:25 15.5 °C 8.5 °C 1024.3 hPa East 8 km/h 8 km/h 63% 0 mm WeatherDisplay:10.37 W/m2 BKN
22:30 15.6 °C 8.6 °C 1024.3 hPa East 8 km/h 8 km/h 63% 0 mm WeatherDisplay:10.37 W/m2 BKN
22:35 15.6 °C 8.6 °C 1024.3 hPa East 8 km/h 8 km/h 63% 0 mm WeatherDisplay:10.37 W/m2 BKN
22:40 15.5 °C 8.5 °C 1024.3 hPa East 8 km/h 8 km/h 63% 0 mm WeatherDisplay:10.37 W/m2 BKN
22:45 15.5 °C 8.5 °C 1024.3 hPa East 8 km/h 8 km/h 63% 0 mm WeatherDisplay:10.37 W/m2 BKN
22:50 15.5 °C 8.5 °C 1024.3 hPa East 8 km/h 8 km/h 63% 0 mm WeatherDisplay:10.37 W/m2 BKN
22:55 15.5 °C 8.4 °C 1024.3 hPa East 8 km/h 8 km/h 63% 0 mm WeatherDisplay:10.37 W/m2 BKN
23:00 15.5 °C 8.5 °C 1024.3 hPa East 8 km/h 8 km/h 63% 0 mm WeatherDisplay:10.37 W/m2 BKN
23:05 15.5 °C 8.4 °C 1024.6 hPa East 8 km/h 8 km/h 63% 0 mm WeatherDisplay:10.37 W/m2 BKN
23:10 15.4 °C 8.4 °C 1024.6 hPa East 8 km/h 8 km/h 63% 0 mm WeatherDisplay:10.37 W/m2 BKN
23:15 15.4 °C 8.2 °C 1024.6 hPa East 9.7 km/h 9.7 km/h 62% 0 mm WeatherDisplay:10.37 W/m2 BKN
23:20 15.5 °C 8.5 °C 1024.6 hPa East 9.7 km/h 9.7 km/h 63% 0 mm WeatherDisplay:10.37 W/m2 BKN
23:25 15.5 °C 8.4 °C 1024.6 hPa East 9.7 km/h 9.7 km/h 63% 0 mm WeatherDisplay:10.37 W/m2 BKN
23:30 15.4 °C 8.4 °C 1024.9 hPa East 9.7 km/h 9.7 km/h 63% 0 mm WeatherDisplay:10.37 W/m2 BKN
23:35 15.5 °C 8.2 °C 1024.9 hPa East 9.7 km/h 9.7 km/h 62% 0 mm WeatherDisplay:10.37 W/m2 BKN
23:40 15.5 °C 8.2 °C 1024.9 hPa East 9.7 km/h 9.7 km/h 62% 0 mm WeatherDisplay:10.37 W/m2 BKN
23:45 15.4 °C 8.2 °C 1024.9 hPa East 9.7 km/h 9.7 km/h 62% 0 mm WeatherDisplay:10.37 W/m2 BKN
23:50 15.4 °C 8.2 °C 1024.9 hPa East 9.7 km/h 9.7 km/h 62% 0 mm WeatherDisplay:10.37 W/m2 BKN
23:55 15.4 °C 8.2 °C 1024.9 hPa East 9.7 km/h 9.7 km/h 62% 0 mm WeatherDisplay:10.37 W/m2 BKN
Piedmont Bend
Compliments of Weather Underground - 4 mb